sensor_id;sensor_type;location;lat;lon;timestamp;P1;durP1;ratioP1;P2;durP2;ratioP2
68212;SDS011;55035;47.792;8.724;2024-01-16T00:02:05;17.33;;;13.48;;
68212;SDS011;55035;47.792;8.724;2024-01-16T00:04:35;15.95;;;12.45;;
68212;SDS011;55035;47.792;8.724;2024-01-16T00:07:02;16.75;;;13.73;;
68212;SDS011;55035;47.792;8.724;2024-01-16T00:09:32;16.05;;;12.70;;
68212;SDS011;55035;47.792;8.724;2024-01-16T00:11:59;18.00;;;13.20;;
68212;SDS011;55035;47.792;8.724;2024-01-16T00:14:25;14.57;;;12.60;;
68212;SDS011;55035;47.792;8.724;2024-01-16T00:16:53;13.97;;;11.80;;
68212;SDS011;55035;47.792;8.724;2024-01-16T00:19:19;15.20;;;12.65;;
68212;SDS011;55035;47.792;8.724;2024-01-16T00:21:47;14.20;;;12.70;;
68212;SDS011;55035;47.792;8.724;2024-01-16T00:24:14;15.48;;;12.23;;
68212;SDS011;55035;47.792;8.724;2024-01-16T00:26:41;19.58;;;17.52;;
68212;SDS011;55035;47.792;8.724;2024-01-16T00:29:08;16.77;;;14.00;;
68212;SDS011;55035;47.792;8.724;2024-01-16T00:31:37;14.60;;;13.10;;
68212;SDS011;55035;47.792;8.724;2024-01-16T00:34:04;14.07;;;12.53;;
68212;SDS011;55035;47.792;8.724;2024-01-16T00:36:31;14.95;;;12.77;;
68212;SDS011;55035;47.792;8.724;2024-01-16T00:38:59;13.80;;;11.40;;
68212;SDS011;55035;47.792;8.724;2024-01-16T00:41:26;14.45;;;12.48;;
68212;SDS011;55035;47.792;8.724;2024-01-16T00:43:55;14.97;;;12.03;;
68212;SDS011;55035;47.792;8.724;2024-01-16T00:46:21;15.45;;;12.23;;
68212;SDS011;55035;47.792;8.724;2024-01-16T00:48:48;15.30;;;12.85;;
68212;SDS011;55035;47.792;8.724;2024-01-16T00:51:15;13.60;;;11.32;;
68212;SDS011;55035;47.792;8.724;2024-01-16T00:53:41;14.30;;;12.20;;
68212;SDS011;55035;47.792;8.724;2024-01-16T00:56:09;15.18;;;12.27;;
68212;SDS011;55035;47.792;8.724;2024-01-16T00:58:38;14.73;;;12.00;;
68212;SDS011;55035;47.792;8.724;2024-01-16T01:01:04;14.77;;;12.57;;
68212;SDS011;55035;47.792;8.724;2024-01-16T01:03:31;14.20;;;12.60;;
68212;SDS011;55035;47.792;8.724;2024-01-16T01:05:57;15.40;;;11.77;;
68212;SDS011;55035;47.792;8.724;2024-01-16T01:08:26;14.50;;;12.48;;
68212;SDS011;55035;47.792;8.724;2024-01-16T01:10:53;16.87;;;13.53;;
68212;SDS011;55035;47.792;8.724;2024-01-16T01:13:22;16.13;;;13.02;;
68212;SDS011;55035;47.792;8.724;2024-01-16T01:15:50;15.02;;;13.02;;
68212;SDS011;55035;47.792;8.724;2024-01-16T01:18:17;14.27;;;12.45;;
68212;SDS011;55035;47.792;8.724;2024-01-16T01:20:43;14.63;;;11.43;;
68212;SDS011;55035;47.792;8.724;2024-01-16T01:23:10;14.43;;;11.73;;
68212;SDS011;55035;47.792;8.724;2024-01-16T01:25:37;14.60;;;11.95;;
68212;SDS011;55035;47.792;8.724;2024-01-16T01:28:04;13.95;;;11.23;;
68212;SDS011;55035;47.792;8.724;2024-01-16T01:30:32;14.30;;;11.68;;
68212;SDS011;55035;47.792;8.724;2024-01-16T01:32:59;14.80;;;11.52;;
68212;SDS011;55035;47.792;8.724;2024-01-16T01:35:25;14.70;;;11.60;;
68212;SDS011;55035;47.792;8.724;2024-01-16T01:37:53;14.07;;;10.98;;
68212;SDS011;55035;47.792;8.724;2024-01-16T01:40:19;14.98;;;11.60;;
68212;SDS011;55035;47.792;8.724;2024-01-16T01:42:46;13.95;;;11.40;;
68212;SDS011;55035;47.792;8.724;2024-01-16T01:45:13;15.75;;;12.93;;
68212;SDS011;55035;47.792;8.724;2024-01-16T01:47:42;14.32;;;11.82;;
68212;SDS011;55035;47.792;8.724;2024-01-16T01:50:09;15.65;;;12.25;;
68212;SDS011;55035;47.792;8.724;2024-01-16T01:52:36;15.77;;;12.50;;
68212;SDS011;55035;47.792;8.724;2024-01-16T01:55:04;14.40;;;11.75;;
68212;SDS011;55035;47.792;8.724;2024-01-16T01:57:33;14.50;;;11.77;;
68212;SDS011;55035;47.792;8.724;2024-01-16T01:59:59;16.05;;;12.30;;
68212;SDS011;55035;47.792;8.724;2024-01-16T02:02:27;15.60;;;11.90;;
68212;SDS011;55035;47.792;8.724;2024-01-16T02:04:55;15.88;;;12.70;;
68212;SDS011;55035;47.792;8.724;2024-01-16T02:07:23;16.88;;;12.77;;
68212;SDS011;55035;47.792;8.724;2024-01-16T02:09:50;15.15;;;11.98;;
68212;SDS011;55035;47.792;8.724;2024-01-16T02:12:17;16.95;;;13.00;;
68212;SDS011;55035;47.792;8.724;2024-01-16T02:14:44;16.52;;;13.05;;
68212;SDS011;55035;47.792;8.724;2024-01-16T02:17:11;14.48;;;11.13;;
68212;SDS011;55035;47.792;8.724;2024-01-16T02:19:38;15.77;;;12.57;;
68212;SDS011;55035;47.792;8.724;2024-01-16T02:22:07;16.88;;;12.57;;
68212;SDS011;55035;47.792;8.724;2024-01-16T02:24:37;18.47;;;13.70;;
68212;SDS011;55035;47.792;8.724;2024-01-16T02:27:04;16.38;;;12.00;;
68212;SDS011;55035;47.792;8.724;2024-01-16T02:29:31;16.92;;;13.13;;
68212;SDS011;55035;47.792;8.724;2024-01-16T02:31:57;16.13;;;12.02;;
68212;SDS011;55035;47.792;8.724;2024-01-16T02:34:24;16.95;;;11.77;;
68212;SDS011;55035;47.792;8.724;2024-01-16T02:36:51;15.88;;;11.85;;
68212;SDS011;55035;47.792;8.724;2024-01-16T02:39:17;15.93;;;12.32;;
68212;SDS011;55035;47.792;8.724;2024-01-16T02:41:46;15.67;;;12.50;;
68212;SDS011;55035;47.792;8.724;2024-01-16T02:44:13;15.45;;;11.25;;
68212;SDS011;55035;47.792;8.724;2024-01-16T02:46:40;14.73;;;12.73;;
68212;SDS011;55035;47.792;8.724;2024-01-16T02:49:06;16.48;;;12.90;;
68212;SDS011;55035;47.792;8.724;2024-01-16T02:51:33;15.25;;;11.63;;
68212;SDS011;55035;47.792;8.724;2024-01-16T02:54:00;14.73;;;11.80;;
68212;SDS011;55035;47.792;8.724;2024-01-16T02:56:27;16.23;;;12.57;;
68212;SDS011;55035;47.792;8.724;2024-01-16T02:58:55;16.38;;;12.10;;
68212;SDS011;55035;47.792;8.724;2024-01-16T03:01:21;15.25;;;12.15;;
68212;SDS011;55035;47.792;8.724;2024-01-16T03:03:48;17.90;;;12.65;;
68212;SDS011;55035;47.792;8.724;2024-01-16T03:06:21;16.93;;;12.50;;
68212;SDS011;55035;47.792;8.724;2024-01-16T03:08:49;16.15;;;11.95;;
68212;SDS011;55035;47.792;8.724;2024-01-16T03:11:17;14.68;;;11.73;;
68212;SDS011;55035;47.792;8.724;2024-01-16T03:13:43;15.50;;;12.27;;
68212;SDS011;55035;47.792;8.724;2024-01-16T03:16:11;16.60;;;12.13;;
68212;SDS011;55035;47.792;8.724;2024-01-16T03:18:38;17.13;;;12.15;;
68212;SDS011;55035;47.792;8.724;2024-01-16T03:21:05;15.13;;;11.85;;
68212;SDS011;55035;47.792;8.724;2024-01-16T03:23:33;14.68;;;11.98;;
68212;SDS011;55035;47.792;8.724;2024-01-16T03:25:59;15.53;;;12.07;;
68212;SDS011;55035;47.792;8.724;2024-01-16T03:28:26;15.65;;;12.07;;
68212;SDS011;55035;47.792;8.724;2024-01-16T03:30:53;15.80;;;12.07;;
68212;SDS011;55035;47.792;8.724;2024-01-16T03:33:22;17.58;;;14.23;;
68212;SDS011;55035;47.792;8.724;2024-01-16T03:35:49;15.35;;;12.25;;
68212;SDS011;55035;47.792;8.724;2024-01-16T03:38:15;15.63;;;12.07;;
68212;SDS011;55035;47.792;8.724;2024-01-16T03:40:42;16.30;;;13.47;;
68212;SDS011;55035;47.792;8.724;2024-01-16T03:43:08;16.67;;;13.35;;
68212;SDS011;55035;47.792;8.724;2024-01-16T03:46:15;21.80;;;13.77;;
68212;SDS011;55035;47.792;8.724;2024-01-16T03:48:43;16.30;;;12.07;;
68212;SDS011;55035;47.792;8.724;2024-01-16T03:51:11;16.53;;;12.73;;
68212;SDS011;55035;47.792;8.724;2024-01-16T03:53:40;17.63;;;12.38;;
68212;SDS011;55035;47.792;8.724;2024-01-16T03:56:07;17.23;;;12.80;;
68212;SDS011;55035;47.792;8.724;2024-01-16T03:58:34;15.80;;;12.77;;
68212;SDS011;55035;47.792;8.724;2024-01-16T04:01:01;16.45;;;12.82;;
68212;SDS011;55035;47.792;8.724;2024-01-16T04:03:28;17.20;;;13.00;;
68212;SDS011;55035;47.792;8.724;2024-01-16T04:05:56;18.80;;;12.93;;
68212;SDS011;55035;47.792;8.724;2024-01-16T04:08:23;20.15;;;14.38;;
68212;SDS011;55035;47.792;8.724;2024-01-16T04:10:50;20.55;;;15.00;;
68212;SDS011;55035;47.792;8.724;2024-01-16T04:13:16;20.15;;;13.50;;
68212;SDS011;55035;47.792;8.724;2024-01-16T04:15:44;22.20;;;15.38;;
68212;SDS011;55035;47.792;8.724;2024-01-16T04:18:10;20.10;;;14.53;;
68212;SDS011;55035;47.792;8.724;2024-01-16T04:20:37;19.88;;;13.57;;
68212;SDS011;55035;47.792;8.724;2024-01-16T04:23:05;19.25;;;13.38;;
68212;SDS011;55035;47.792;8.724;2024-01-16T04:25:32;17.15;;;12.90;;
68212;SDS011;55035;47.792;8.724;2024-01-16T04:27:59;20.77;;;13.50;;
68212;SDS011;55035;47.792;8.724;2024-01-16T04:30:25;47.75;;;24.58;;
68212;SDS011;55035;47.792;8.724;2024-01-16T04:32:52;17.45;;;13.93;;
68212;SDS011;55035;47.792;8.724;2024-01-16T04:35:19;19.45;;;14.00;;
68212;SDS011;55035;47.792;8.724;2024-01-16T04:37:47;18.13;;;14.07;;
68212;SDS011;55035;47.792;8.724;2024-01-16T04:40:15;17.52;;;13.38;;
68212;SDS011;55035;47.792;8.724;2024-01-16T04:42:42;17.05;;;12.85;;
68212;SDS011;55035;47.792;8.724;2024-01-16T04:45:09;17.38;;;12.80;;
68212;SDS011;55035;47.792;8.724;2024-01-16T04:47:36;17.80;;;14.05;;
68212;SDS011;55035;47.792;8.724;2024-01-16T04:50:02;17.70;;;12.93;;
68212;SDS011;55035;47.792;8.724;2024-01-16T04:52:29;18.67;;;13.13;;
68212;SDS011;55035;47.792;8.724;2024-01-16T04:54:56;20.63;;;14.02;;
68212;SDS011;55035;47.792;8.724;2024-01-16T04:57:24;20.70;;;13.80;;
68212;SDS011;55035;47.792;8.724;2024-01-16T04:59:51;21.83;;;13.40;;
68212;SDS011;55035;47.792;8.724;2024-01-16T05:02:18;20.65;;;14.02;;
68212;SDS011;55035;47.792;8.724;2024-01-16T05:04:44;19.73;;;12.88;;
68212;SDS011;55035;47.792;8.724;2024-01-16T05:07:14;19.15;;;13.18;;
68212;SDS011;55035;47.792;8.724;2024-01-16T05:09:41;22.13;;;14.70;;
68212;SDS011;55035;47.792;8.724;2024-01-16T05:12:10;21.80;;;13.85;;
68212;SDS011;55035;47.792;8.724;2024-01-16T05:14:38;22.80;;;14.47;;
68212;SDS011;55035;47.792;8.724;2024-01-16T05:17:05;20.42;;;14.77;;
68212;SDS011;55035;47.792;8.724;2024-01-16T05:19:33;19.00;;;13.27;;
68212;SDS011;55035;47.792;8.724;2024-01-16T05:21:59;22.48;;;14.40;;
68212;SDS011;55035;47.792;8.724;2024-01-16T05:24:26;20.08;;;14.50;;
68212;SDS011;55035;47.792;8.724;2024-01-16T05:26:54;19.15;;;14.15;;
68212;SDS011;55035;47.792;8.724;2024-01-16T05:29:21;21.15;;;13.40;;
68212;SDS011;55035;47.792;8.724;2024-01-16T05:31:50;19.02;;;14.45;;
68212;SDS011;55035;47.792;8.724;2024-01-16T05:34:16;18.60;;;14.07;;
68212;SDS011;55035;47.792;8.724;2024-01-16T05:36:43;20.88;;;13.65;;
68212;SDS011;55035;47.792;8.724;2024-01-16T05:39:10;20.92;;;13.73;;
68212;SDS011;55035;47.792;8.724;2024-01-16T05:41:36;19.77;;;14.13;;
68212;SDS011;55035;47.792;8.724;2024-01-16T05:44:03;17.88;;;12.77;;
68212;SDS011;55035;47.792;8.724;2024-01-16T05:46:30;19.67;;;14.83;;
68212;SDS011;55035;47.792;8.724;2024-01-16T05:48:58;20.45;;;12.63;;
68212;SDS011;55035;47.792;8.724;2024-01-16T05:51:27;20.95;;;12.77;;
68212;SDS011;55035;47.792;8.724;2024-01-16T05:53:53;18.97;;;12.50;;
68212;SDS011;55035;47.792;8.724;2024-01-16T05:56:20;20.10;;;13.55;;
68212;SDS011;55035;47.792;8.724;2024-01-16T05:58:47;21.48;;;12.77;;
68212;SDS011;55035;47.792;8.724;2024-01-16T06:01:14;19.43;;;13.47;;
68212;SDS011;55035;47.792;8.724;2024-01-16T06:03:40;21.33;;;13.75;;
68212;SDS011;55035;47.792;8.724;2024-01-16T06:06:09;18.63;;;13.48;;
68212;SDS011;55035;47.792;8.724;2024-01-16T06:08:35;18.52;;;12.85;;
68212;SDS011;55035;47.792;8.724;2024-01-16T06:11:02;21.35;;;13.70;;
68212;SDS011;55035;47.792;8.724;2024-01-16T06:13:29;17.93;;;12.03;;
68212;SDS011;55035;47.792;8.724;2024-01-16T06:15:57;18.83;;;12.60;;
68212;SDS011;55035;47.792;8.724;2024-01-16T06:18:24;18.27;;;11.55;;
68212;SDS011;55035;47.792;8.724;2024-01-16T06:20:50;19.27;;;12.27;;
68212;SDS011;55035;47.792;8.724;2024-01-16T06:23:18;18.30;;;12.75;;
68212;SDS011;55035;47.792;8.724;2024-01-16T06:25:45;23.33;;;13.75;;
68212;SDS011;55035;47.792;8.724;2024-01-16T06:28:12;24.35;;;15.02;;
68212;SDS011;55035;47.792;8.724;2024-01-16T06:30:38;18.67;;;12.83;;
68212;SDS011;55035;47.792;8.724;2024-01-16T06:33:05;22.45;;;14.13;;
68212;SDS011;55035;47.792;8.724;2024-01-16T06:35:32;27.50;;;17.40;;
68212;SDS011;55035;47.792;8.724;2024-01-16T06:37:58;24.13;;;14.90;;
68212;SDS011;55035;47.792;8.724;2024-01-16T06:40:27;20.48;;;12.90;;
68212;SDS011;55035;47.792;8.724;2024-01-16T06:42:54;18.73;;;12.25;;
68212;SDS011;55035;47.792;8.724;2024-01-16T06:45:21;18.95;;;12.50;;
68212;SDS011;55035;47.792;8.724;2024-01-16T06:47:47;24.50;;;15.32;;
68212;SDS011;55035;47.792;8.724;2024-01-16T06:50:14;24.45;;;16.02;;
68212;SDS011;55035;47.792;8.724;2024-01-16T06:52:40;25.55;;;15.02;;
68212;SDS011;55035;47.792;8.724;2024-01-16T06:55:07;23.38;;;14.07;;
68212;SDS011;55035;47.792;8.724;2024-01-16T06:57:35;24.30;;;15.57;;
68212;SDS011;55035;47.792;8.724;2024-01-16T07:00:02;23.80;;;16.00;;
68212;SDS011;55035;47.792;8.724;2024-01-16T07:02:32;22.37;;;14.70;;
68212;SDS011;55035;47.792;8.724;2024-01-16T07:05:00;23.50;;;15.13;;
68212;SDS011;55035;47.792;8.724;2024-01-16T07:07:26;21.10;;;13.70;;
68212;SDS011;55035;47.792;8.724;2024-01-16T07:09:54;22.77;;;13.45;;
68212;SDS011;55035;47.792;8.724;2024-01-16T07:12:21;22.85;;;14.05;;
68212;SDS011;55035;47.792;8.724;2024-01-16T07:14:49;21.88;;;13.55;;
68212;SDS011;55035;47.792;8.724;2024-01-16T07:17:16;18.80;;;13.40;;
68212;SDS011;55035;47.792;8.724;2024-01-16T07:19:42;17.50;;;12.43;;
68212;SDS011;55035;47.792;8.724;2024-01-16T07:22:09;17.05;;;11.95;;
68212;SDS011;55035;47.792;8.724;2024-01-16T07:24:36;21.90;;;14.77;;
68212;SDS011;55035;47.792;8.724;2024-01-16T07:27:02;20.80;;;13.40;;
68212;SDS011;55035;47.792;8.724;2024-01-16T07:29:30;20.87;;;14.33;;
68212;SDS011;55035;47.792;8.724;2024-01-16T07:31:57;17.13;;;13.17;;
68212;SDS011;55035;47.792;8.724;2024-01-16T07:34:25;17.00;;;12.63;;
68212;SDS011;55035;47.792;8.724;2024-01-16T07:36:51;18.02;;;12.35;;
68212;SDS011;55035;47.792;8.724;2024-01-16T07:39:20;17.40;;;12.32;;
68212;SDS011;55035;47.792;8.724;2024-01-16T07:41:48;18.13;;;12.63;;
68212;SDS011;55035;47.792;8.724;2024-01-16T07:44:15;17.45;;;11.68;;
68212;SDS011;55035;47.792;8.724;2024-01-16T07:46:42;17.43;;;12.80;;
68212;SDS011;55035;47.792;8.724;2024-01-16T07:49:09;19.02;;;12.55;;
68212;SDS011;55035;47.792;8.724;2024-01-16T07:51:36;18.75;;;13.25;;
68212;SDS011;55035;47.792;8.724;2024-01-16T07:54:06;18.93;;;13.37;;
68212;SDS011;55035;47.792;8.724;2024-01-16T07:56:33;25.83;;;17.80;;
68212;SDS011;55035;47.792;8.724;2024-01-16T07:59:00;34.78;;;22.00;;
68212;SDS011;55035;47.792;8.724;2024-01-16T08:01:27;38.35;;;24.00;;
68212;SDS011;55035;47.792;8.724;2024-01-16T08:03:55;33.67;;;20.52;;
68212;SDS011;55035;47.792;8.724;2024-01-16T08:06:23;31.33;;;22.03;;
68212;SDS011;55035;47.792;8.724;2024-01-16T08:08:50;32.38;;;21.77;;
68212;SDS011;55035;47.792;8.724;2024-01-16T08:11:18;30.52;;;21.65;;
68212;SDS011;55035;47.792;8.724;2024-01-16T08:13:45;30.38;;;21.60;;
68212;SDS011;55035;47.792;8.724;2024-01-16T08:16:11;30.50;;;22.33;;
68212;SDS011;55035;47.792;8.724;2024-01-16T08:18:38;29.30;;;21.43;;
68212;SDS011;55035;47.792;8.724;2024-01-16T08:21:06;24.98;;;19.35;;
68212;SDS011;55035;47.792;8.724;2024-01-16T08:23:35;36.63;;;26.70;;
68212;SDS011;55035;47.792;8.724;2024-01-16T08:26:01;39.75;;;30.50;;
68212;SDS011;55035;47.792;8.724;2024-01-16T08:28:28;40.25;;;31.60;;
68212;SDS011;55035;47.792;8.724;2024-01-16T08:30:55;30.67;;;23.50;;
68212;SDS011;55035;47.792;8.724;2024-01-16T08:33:21;32.90;;;24.80;;
68212;SDS011;55035;47.792;8.724;2024-01-16T08:35:48;31.70;;;24.90;;
68212;SDS011;55035;47.792;8.724;2024-01-16T08:38:15;29.52;;;23.95;;
68212;SDS011;55035;47.792;8.724;2024-01-16T08:40:44;26.83;;;20.73;;
68212;SDS011;55035;47.792;8.724;2024-01-16T08:43:10;25.15;;;19.67;;
68212;SDS011;55035;47.792;8.724;2024-01-16T08:45:38;22.55;;;17.63;;
68212;SDS011;55035;47.792;8.724;2024-01-16T08:48:05;20.27;;;16.65;;
68212;SDS011;55035;47.792;8.724;2024-01-16T08:50:32;20.73;;;18.52;;
68212;SDS011;55035;47.792;8.724;2024-01-16T08:52:58;22.55;;;20.15;;
68212;SDS011;55035;47.792;8.724;2024-01-16T08:55:25;24.73;;;22.13;;
68212;SDS011;55035;47.792;8.724;2024-01-16T08:57:53;26.38;;;23.65;;
68212;SDS011;55035;47.792;8.724;2024-01-16T09:00:20;26.00;;;23.40;;
68212;SDS011;55035;47.792;8.724;2024-01-16T09:02:47;27.10;;;24.30;;
68212;SDS011;55035;47.792;8.724;2024-01-16T09:05:14;26.43;;;23.70;;
68212;SDS011;55035;47.792;8.724;2024-01-16T09:07:41;27.38;;;24.63;;
68212;SDS011;55035;47.792;8.724;2024-01-16T09:10:08;28.05;;;25.20;;
68212;SDS011;55035;47.792;8.724;2024-01-16T09:12:35;27.83;;;25.10;;
68212;SDS011;55035;47.792;8.724;2024-01-16T09:15:03;27.00;;;24.38;;
68212;SDS011;55035;47.792;8.724;2024-01-16T09:17:30;25.92;;;23.35;;
68212;SDS011;55035;47.792;8.724;2024-01-16T09:19:57;25.30;;;22.80;;
68212;SDS011;55035;47.792;8.724;2024-01-16T09:22:23;22.95;;;20.65;;
68212;SDS011;55035;47.792;8.724;2024-01-16T09:24:50;24.23;;;21.38;;
68212;SDS011;55035;47.792;8.724;2024-01-16T09:27:17;23.77;;;21.23;;
68212;SDS011;55035;47.792;8.724;2024-01-16T09:29:44;24.50;;;21.90;;
68212;SDS011;55035;47.792;8.724;2024-01-16T09:32:12;21.70;;;19.60;;
68212;SDS011;55035;47.792;8.724;2024-01-16T09:34:39;19.95;;;17.95;;
68212;SDS011;55035;47.792;8.724;2024-01-16T09:37:09;18.42;;;16.33;;
68212;SDS011;55035;47.792;8.724;2024-01-16T09:39:35;25.65;;;19.98;;
68212;SDS011;55035;47.792;8.724;2024-01-16T09:42:03;20.58;;;15.27;;
68212;SDS011;55035;47.792;8.724;2024-01-16T09:44:30;22.63;;;13.77;;
68212;SDS011;55035;47.792;8.724;2024-01-16T09:46:57;23.10;;;12.13;;
68212;SDS011;55035;47.792;8.724;2024-01-16T09:49:25;22.85;;;11.15;;
68212;SDS011;55035;47.792;8.724;2024-01-16T09:51:52;15.90;;;7.47;;
68212;SDS011;55035;47.792;8.724;2024-01-16T09:54:19;13.25;;;6.22;;
68212;SDS011;55035;47.792;8.724;2024-01-16T09:56:46;12.63;;;5.82;;
68212;SDS011;55035;47.792;8.724;2024-01-16T09:59:15;12.55;;;5.95;;
68212;SDS011;55035;47.792;8.724;2024-01-16T10:01:43;12.63;;;5.68;;
68212;SDS011;55035;47.792;8.724;2024-01-16T10:04:10;11.60;;;5.30;;
68212;SDS011;55035;47.792;8.724;2024-01-16T10:06:38;12.32;;;5.63;;
68212;SDS011;55035;47.792;8.724;2024-01-16T10:09:05;12.85;;;6.00;;
68212;SDS011;55035;47.792;8.724;2024-01-16T10:11:32;15.63;;;7.90;;
68212;SDS011;55035;47.792;8.724;2024-01-16T10:14:00;21.38;;;12.60;;
68212;SDS011;55035;47.792;8.724;2024-01-16T10:19:09;12.90;;;6.05;;
68212;SDS011;55035;47.792;8.724;2024-01-16T10:21:36;13.50;;;8.60;;
68212;SDS011;55035;47.792;8.724;2024-01-16T10:24:11;15.63;;;10.07;;
68212;SDS011;55035;47.792;8.724;2024-01-16T10:26:38;13.50;;;9.18;;
68212;SDS011;55035;47.792;8.724;2024-01-16T10:29:06;25.38;;;13.75;;
68212;SDS011;55035;47.792;8.724;2024-01-16T10:31:33;24.52;;;16.38;;
68212;SDS011;55035;47.792;8.724;2024-01-16T10:34:00;16.77;;;14.98;;
68212;SDS011;55035;47.792;8.724;2024-01-16T10:36:28;19.98;;;17.98;;
68212;SDS011;55035;47.792;8.724;2024-01-16T10:38:55;22.02;;;19.75;;
68212;SDS011;55035;47.792;8.724;2024-01-16T10:41:30;21.63;;;19.43;;
68212;SDS011;55035;47.792;8.724;2024-01-16T10:44:03;20.75;;;18.55;;
68212;SDS011;55035;47.792;8.724;2024-01-16T10:46:29;19.92;;;17.92;;
68212;SDS011;55035;47.792;8.724;2024-01-16T10:49:00;20.10;;;18.00;;
68212;SDS011;55035;47.792;8.724;2024-01-16T10:51:27;22.35;;;20.05;;
68212;SDS011;55035;47.792;8.724;2024-01-16T10:53:57;22.13;;;19.70;;
68212;SDS011;55035;47.792;8.724;2024-01-16T10:56:24;20.60;;;18.47;;
68212;SDS011;55035;47.792;8.724;2024-01-16T10:58:56;18.00;;;15.52;;
68212;SDS011;55035;47.792;8.724;2024-01-16T11:01:24;17.83;;;14.10;;
68212;SDS011;55035;47.792;8.724;2024-01-16T11:03:51;17.05;;;15.25;;
68212;SDS011;55035;47.792;8.724;2024-01-16T11:06:19;17.73;;;15.82;;
68212;SDS011;55035;47.792;8.724;2024-01-16T11:08:48;19.50;;;17.42;;
68212;SDS011;55035;47.792;8.724;2024-01-16T11:11:15;19.63;;;17.52;;
68212;SDS011;55035;47.792;8.724;2024-01-16T11:13:42;22.85;;;20.55;;
68212;SDS011;55035;47.792;8.724;2024-01-16T11:16:11;21.63;;;19.42;;
68212;SDS011;55035;47.792;8.724;2024-01-16T11:18:39;22.05;;;19.95;;
68212;SDS011;55035;47.792;8.724;2024-01-16T11:21:07;22.52;;;20.33;;
68212;SDS011;55035;47.792;8.724;2024-01-16T11:23:35;21.50;;;19.30;;
68212;SDS011;55035;47.792;8.724;2024-01-16T11:28:44;23.20;;;20.83;;
68212;SDS011;55035;47.792;8.724;2024-01-16T11:33:54;22.67;;;20.42;;
68212;SDS011;55035;47.792;8.724;2024-01-16T11:39:05;24.15;;;21.75;;
68212;SDS011;55035;47.792;8.724;2024-01-16T11:41:47;21.95;;;19.75;;
68212;SDS011;55035;47.792;8.724;2024-01-16T11:46:59;21.38;;;19.17;;
68212;SDS011;55035;47.792;8.724;2024-01-16T11:49:29;21.48;;;19.25;;
68212;SDS011;55035;47.792;8.724;2024-01-16T11:51:57;22.73;;;20.53;;
68212;SDS011;55035;47.792;8.724;2024-01-16T11:54:24;21.98;;;19.67;;
68212;SDS011;55035;47.792;8.724;2024-01-16T11:57:12;22.80;;;20.60;;
68212;SDS011;55035;47.792;8.724;2024-01-16T11:59:46;23.58;;;21.27;;
68212;SDS011;55035;47.792;8.724;2024-01-16T12:02:21;22.92;;;20.80;;
68212;SDS011;55035;47.792;8.724;2024-01-16T12:04:53;21.45;;;19.25;;
68212;SDS011;55035;47.792;8.724;2024-01-16T12:07:21;20.13;;;15.38;;
68212;SDS011;55035;47.792;8.724;2024-01-16T12:09:48;15.50;;;10.13;;
68212;SDS011;55035;47.792;8.724;2024-01-16T12:12:15;13.57;;;6.50;;
68212;SDS011;55035;47.792;8.724;2024-01-16T12:14:50;12.98;;;6.43;;
68212;SDS011;55035;47.792;8.724;2024-01-16T12:17:17;18.00;;;9.07;;
68212;SDS011;55035;47.792;8.724;2024-01-16T12:19:45;20.17;;;10.93;;
68212;SDS011;55035;47.792;8.724;2024-01-16T12:22:14;29.10;;;15.90;;
68212;SDS011;55035;47.792;8.724;2024-01-16T12:24:41;17.35;;;8.85;;
68212;SDS011;55035;47.792;8.724;2024-01-16T12:27:08;18.90;;;9.50;;
68212;SDS011;55035;47.792;8.724;2024-01-16T12:29:35;15.27;;;8.07;;
68212;SDS011;55035;47.792;8.724;2024-01-16T12:32:06;23.00;;;12.50;;
68212;SDS011;55035;47.792;8.724;2024-01-16T12:34:33;28.17;;;16.08;;
68212;SDS011;55035;47.792;8.724;2024-01-16T12:37:04;30.95;;;17.50;;
68212;SDS011;55035;47.792;8.724;2024-01-16T12:39:32;22.30;;;12.27;;
68212;SDS011;55035;47.792;8.724;2024-01-16T12:42:00;17.33;;;9.43;;
68212;SDS011;55035;47.792;8.724;2024-01-16T12:44:27;13.50;;;6.80;;
68212;SDS011;55035;47.792;8.724;2024-01-16T12:46:54;13.40;;;6.95;;
68212;SDS011;55035;47.792;8.724;2024-01-16T12:49:21;15.63;;;7.47;;
68212;SDS011;55035;47.792;8.724;2024-01-16T12:51:48;13.97;;;6.77;;
68212;SDS011;55035;47.792;8.724;2024-01-16T12:54:16;13.17;;;6.33;;
68212;SDS011;55035;47.792;8.724;2024-01-16T12:56:45;13.20;;;6.53;;
68212;SDS011;55035;47.792;8.724;2024-01-16T12:59:12;13.02;;;6.60;;
68212;SDS011;55035;47.792;8.724;2024-01-16T13:01:40;13.18;;;6.90;;
68212;SDS011;55035;47.792;8.724;2024-01-16T13:04:08;13.25;;;6.70;;
68212;SDS011;55035;47.792;8.724;2024-01-16T13:06:35;12.98;;;6.60;;
68212;SDS011;55035;47.792;8.724;2024-01-16T13:09:06;12.43;;;6.40;;
68212;SDS011;55035;47.792;8.724;2024-01-16T13:11:45;12.50;;;6.55;;
68212;SDS011;55035;47.792;8.724;2024-01-16T13:14:13;13.55;;;6.72;;
68212;SDS011;55035;47.792;8.724;2024-01-16T13:16:39;13.20;;;6.53;;
68212;SDS011;55035;47.792;8.724;2024-01-16T13:19:07;13.82;;;6.80;;
68212;SDS011;55035;47.792;8.724;2024-01-16T13:21:35;13.48;;;6.72;;
68212;SDS011;55035;47.792;8.724;2024-01-16T13:24:02;12.77;;;6.45;;
68212;SDS011;55035;47.792;8.724;2024-01-16T13:26:29;12.70;;;6.67;;
68212;SDS011;55035;47.792;8.724;2024-01-16T13:28:58;13.57;;;6.70;;
68212;SDS011;55035;47.792;8.724;2024-01-16T13:31:25;12.38;;;6.40;;
68212;SDS011;55035;47.792;8.724;2024-01-16T13:33:52;13.93;;;7.00;;
68212;SDS011;55035;47.792;8.724;2024-01-16T13:36:18;13.73;;;6.80;;
68212;SDS011;55035;47.792;8.724;2024-01-16T13:38:46;13.38;;;6.68;;
68212;SDS011;55035;47.792;8.724;2024-01-16T13:41:12;15.13;;;6.97;;
68212;SDS011;55035;47.792;8.724;2024-01-16T13:43:39;13.40;;;6.78;;
68212;SDS011;55035;47.792;8.724;2024-01-16T13:46:07;13.65;;;6.82;;
68212;SDS011;55035;47.792;8.724;2024-01-16T13:48:36;13.48;;;7.05;;
68212;SDS011;55035;47.792;8.724;2024-01-16T13:51:02;14.50;;;6.68;;
68212;SDS011;55035;47.792;8.724;2024-01-16T13:53:30;12.68;;;6.65;;
68212;SDS011;55035;47.792;8.724;2024-01-16T13:55:57;13.73;;;6.95;;
68212;SDS011;55035;47.792;8.724;2024-01-16T13:58:24;13.57;;;6.97;;
68212;SDS011;55035;47.792;8.724;2024-01-16T14:00:51;13.55;;;6.95;;
68212;SDS011;55035;47.792;8.724;2024-01-16T14:03:25;13.15;;;6.80;;
68212;SDS011;55035;47.792;8.724;2024-01-16T14:05:52;13.03;;;6.60;;
68212;SDS011;55035;47.792;8.724;2024-01-16T14:08:21;13.43;;;7.05;;
68212;SDS011;55035;47.792;8.724;2024-01-16T14:10:47;13.32;;;6.80;;
68212;SDS011;55035;47.792;8.724;2024-01-16T14:13:14;13.57;;;7.10;;
68212;SDS011;55035;47.792;8.724;2024-01-16T14:15:40;12.80;;;6.80;;
68212;SDS011;55035;47.792;8.724;2024-01-16T14:18:07;13.53;;;6.83;;
68212;SDS011;55035;47.792;8.724;2024-01-16T14:20:35;13.05;;;6.90;;
68212;SDS011;55035;47.792;8.724;2024-01-16T14:23:02;13.77;;;7.25;;
68212;SDS011;55035;47.792;8.724;2024-01-16T14:25:29;12.77;;;6.83;;
68212;SDS011;55035;47.792;8.724;2024-01-16T14:27:58;13.35;;;6.95;;
68212;SDS011;55035;47.792;8.724;2024-01-16T14:30:25;13.80;;;7.10;;
68212;SDS011;55035;47.792;8.724;2024-01-16T14:32:52;13.82;;;6.97;;
68212;SDS011;55035;47.792;8.724;2024-01-16T14:35:19;14.15;;;6.65;;
68212;SDS011;55035;47.792;8.724;2024-01-16T14:37:47;14.70;;;6.90;;
68212;SDS011;55035;47.792;8.724;2024-01-16T14:40:15;13.87;;;6.90;;